Aérodrome :
LOGIN :

S'inscrire | Disclaimer

   EN    FR    IT 

 










Légende :    VFR   VFR Marginal   IFR   IFR Intensif   IFR Très Intensif
Visi : 
Plafond : 
>= 8 km
>= 3000ft
5 à 8 km
1000 à 3000 ft
1500m à 5 km
500 à 1000 ft
800 à 1500m
200 à 500 ft
< 800m
< 200 ft
Symboles :   Orages  Brouillard  Fortes neiges  Fortes précipitations  Vent > 20 kt
SIGMETs :   Divers  Orages  Givrage  Turbulence  Onde Orograph.  Cendres Volcan.







- Altitude de l'aérodrome : 197 ft
- Code IATA : XOG
- Voir les cartes d'approche


LFMO - Orange

DERNIER METAR :
  • 140800Z AUTO VRB02KT 9999 FEW019 BKN076 OVC180 07/06 Q1013 TEMPO 3000 BR

METARs EXPIRÉS :
  • 140730Z AUTO VRB02KT 9999 FEW017 SCT047 BKN074 07/06 Q1013 TEMPO 3000 BR
  • 140700Z AUTO 00000KT 9999 FEW016 OVC050 07/06 Q1013 TEMPO 3000 BR
  • 140630Z AUTO 21003KT 9999 BKN054 OVC064 07/06 Q1013 TEMPO 3000 BR
  • 140600Z AUTO 15003KT 130V190 9999 FEW015 BKN058 BKN068 07/06 Q1012 TEMPO 3000 BR
  • 140530Z AUTO 16003KT 130V190 9999 SCT014 OVC060 07/06 Q1012 TEMPO 3000 BR

TAF AMD TAF LFMO
Valide du 14 à 04h jusqu'au 15 à 03h UTC


140412Z 1404/1503 13012KT 9999 BKN015
BECMG 1405/1407 VRB02KT SCT040
TEMPO 1406/1409 3000 BR
BECMG 1410/1412 CAVOK
BECMG 1412/1414 15010KT
Pas de NOTAMs connus pour ce terrain.
2 SIGMETs publiés pour la FIR Marseille (LFMM) :
 
Turbulence forte
LFMM SIGMET 3 VALID 140600/141000 LFPW
LFMM MARSEILLE FIR/UIR SEV TURB FCST WI N4345 E00730 - N4315 E00945 - N4115 E00945 - N4115 E00845 - N4230 E00830 - N4330 E00645 - N4345 E00730 SFC/FL070 STNR INTSF=
Onde orographique forte
LFMM SIGMET 2 VALID 140600/140900 LFPW
LFMM MARSEILLE FIR/UIR SEV MTW FCST E OF E00900 SFC/FL320 STNR NC=



MET'MAP, la Météo Aéronautique d'un coup d'oeil ! - Copyright ORBIFLY Décembre 2007 - Disclaimer

ORBIFLY MET'MAP TEAM :

Programmation & Développement : Alexandra Zaïnal
Conception & Développement : Baudouin d'Aumeries
Co-Programmation & Développement : Marc-Olivier Méhu
Soutien technique & logistique : Manuel Goepfert

Contact : metmap@orbifly.com




SOURCES & CREDITS :

   NOAA